sensor_id;sensor_type;location;lat;lon;timestamp;P1;durP1;ratioP1;P2;durP2;ratioP2
80249;SDS011;69561;37.974;23.708;2023-04-22T00:01:23;2.88;;;2.00;;
80249;SDS011;69561;37.974;23.708;2023-04-22T00:03:49;4.70;;;2.35;;
80249;SDS011;69561;37.974;23.708;2023-04-22T00:06:16;4.88;;;2.70;;
80249;SDS011;69561;37.974;23.708;2023-04-22T00:08:42;6.22;;;2.90;;
80249;SDS011;69561;37.974;23.708;2023-04-22T00:11:08;6.28;;;3.20;;
80249;SDS011;69561;37.974;23.708;2023-04-22T00:13:33;6.68;;;3.08;;
80249;SDS011;69561;37.974;23.708;2023-04-22T00:16:01;8.38;;;3.50;;
80249;SDS011;69561;37.974;23.708;2023-04-22T00:18:27;9.80;;;3.47;;
80249;SDS011;69561;37.974;23.708;2023-04-22T00:20:53;7.93;;;4.05;;
80249;SDS011;69561;37.974;23.708;2023-04-22T00:23:19;5.60;;;3.95;;
80249;SDS011;69561;37.974;23.708;2023-04-22T00:25:44;7.72;;;3.80;;
80249;SDS011;69561;37.974;23.708;2023-04-22T00:28:10;10.60;;;4.18;;
80249;SDS011;69561;37.974;23.708;2023-04-22T00:30:36;10.48;;;3.80;;
80249;SDS011;69561;37.974;23.708;2023-04-22T00:33:02;9.02;;;4.30;;
80249;SDS011;69561;37.974;23.708;2023-04-22T00:35:28;9.75;;;4.88;;
80249;SDS011;69561;37.974;23.708;2023-04-22T00:37:54;8.75;;;4.30;;
80249;SDS011;69561;37.974;23.708;2023-04-22T00:40:20;11.70;;;4.70;;
80249;SDS011;69561;37.974;23.708;2023-04-22T00:42:46;8.43;;;4.93;;
80249;SDS011;69561;37.974;23.708;2023-04-22T00:45:14;11.63;;;4.35;;
80249;SDS011;69561;37.974;23.708;2023-04-22T00:47:43;8.07;;;4.70;;
80249;SDS011;69561;37.974;23.708;2023-04-22T00:50:11;9.75;;;5.00;;
80249;SDS011;69561;37.974;23.708;2023-04-22T00:52:37;7.15;;;4.70;;
80249;SDS011;69561;37.974;23.708;2023-04-22T00:55:03;9.75;;;5.07;;
80249;SDS011;69561;37.974;23.708;2023-04-22T00:57:29;11.15;;;5.30;;
80249;SDS011;69561;37.974;23.708;2023-04-22T00:59:56;9.70;;;5.43;;
80249;SDS011;69561;37.974;23.708;2023-04-22T01:02:22;10.77;;;5.53;;
80249;SDS011;69561;37.974;23.708;2023-04-22T01:04:48;10.43;;;5.50;;
80249;SDS011;69561;37.974;23.708;2023-04-22T01:07:14;10.13;;;5.40;;
80249;SDS011;69561;37.974;23.708;2023-04-22T01:09:40;8.82;;;5.82;;
80249;SDS011;69561;37.974;23.708;2023-04-22T01:12:06;19.95;;;5.80;;
80249;SDS011;69561;37.974;23.708;2023-04-22T01:14:31;9.60;;;5.25;;
80249;SDS011;69561;37.974;23.708;2023-04-22T01:16:58;13.85;;;5.22;;
80249;SDS011;69561;37.974;23.708;2023-04-22T01:19:24;10.07;;;5.70;;
80249;SDS011;69561;37.974;23.708;2023-04-22T01:21:50;11.32;;;5.72;;
80249;SDS011;69561;37.974;23.708;2023-04-22T01:24:18;11.43;;;5.50;;
80249;SDS011;69561;37.974;23.708;2023-04-22T01:26:44;9.18;;;5.10;;
80249;SDS011;69561;37.974;23.708;2023-04-22T01:29:10;7.32;;;5.00;;
80249;SDS011;69561;37.974;23.708;2023-04-22T01:31:36;8.38;;;5.57;;
80249;SDS011;69561;37.974;23.708;2023-04-22T01:34:02;9.85;;;5.47;;
80249;SDS011;69561;37.974;23.708;2023-04-22T01:36:28;10.18;;;6.03;;
80249;SDS011;69561;37.974;23.708;2023-04-22T01:38:55;10.15;;;6.18;;
80249;SDS011;69561;37.974;23.708;2023-04-22T01:41:21;11.43;;;5.82;;
80249;SDS011;69561;37.974;23.708;2023-04-22T01:43:47;10.65;;;5.95;;
80249;SDS011;69561;37.974;23.708;2023-04-22T01:46:15;9.40;;;5.68;;
80249;SDS011;69561;37.974;23.708;2023-04-22T01:48:41;10.80;;;5.90;;
80249;SDS011;69561;37.974;23.708;2023-04-22T01:51:07;11.45;;;6.00;;
80249;SDS011;69561;37.974;23.708;2023-04-22T01:53:34;11.05;;;6.07;;
80249;SDS011;69561;37.974;23.708;2023-04-22T01:56:00;11.70;;;6.15;;
80249;SDS011;69561;37.974;23.708;2023-04-22T01:58:29;10.45;;;6.82;;
80249;SDS011;69561;37.974;23.708;2023-04-22T02:00:57;12.75;;;6.63;;
80249;SDS011;69561;37.974;23.708;2023-04-22T02:03:22;10.93;;;6.28;;
80249;SDS011;69561;37.974;23.708;2023-04-22T02:05:48;11.75;;;6.68;;
80249;SDS011;69561;37.974;23.708;2023-04-22T02:08:14;10.80;;;6.28;;
80249;SDS011;69561;37.974;23.708;2023-04-22T02:10:39;14.27;;;6.60;;
80249;SDS011;69561;37.974;23.708;2023-04-22T02:13:05;9.60;;;6.47;;
80249;SDS011;69561;37.974;23.708;2023-04-22T02:15:31;14.00;;;6.63;;
80249;SDS011;69561;37.974;23.708;2023-04-22T02:17:56;10.07;;;6.25;;
80249;SDS011;69561;37.974;23.708;2023-04-22T02:20:22;10.75;;;6.82;;
80249;SDS011;69561;37.974;23.708;2023-04-22T02:22:48;12.07;;;6.70;;
80249;SDS011;69561;37.974;23.708;2023-04-22T02:25:14;11.82;;;6.45;;
80249;SDS011;69561;37.974;23.708;2023-04-22T02:27:40;12.00;;;6.75;;
80249;SDS011;69561;37.974;23.708;2023-04-22T02:30:07;10.77;;;7.07;;
80249;SDS011;69561;37.974;23.708;2023-04-22T02:32:33;11.88;;;7.25;;
80249;SDS011;69561;37.974;23.708;2023-04-22T02:35:01;14.52;;;7.47;;
80249;SDS011;69561;37.974;23.708;2023-04-22T02:37:27;10.50;;;6.80;;
80249;SDS011;69561;37.974;23.708;2023-04-22T02:39:53;14.65;;;7.03;;
80249;SDS011;69561;37.974;23.708;2023-04-22T02:42:18;10.07;;;6.40;;
80249;SDS011;69561;37.974;23.708;2023-04-22T02:44:44;11.40;;;6.60;;
80249;SDS011;69561;37.974;23.708;2023-04-22T02:47:09;18.30;;;7.07;;
80249;SDS011;69561;37.974;23.708;2023-04-22T02:49:35;12.88;;;6.78;;
80249;SDS011;69561;37.974;23.708;2023-04-22T02:52:01;12.57;;;7.00;;
80249;SDS011;69561;37.974;23.708;2023-04-22T02:54:26;11.82;;;6.65;;
80249;SDS011;69561;37.974;23.708;2023-04-22T02:56:52;13.70;;;6.38;;
80249;SDS011;69561;37.974;23.708;2023-04-22T02:59:18;11.93;;;6.20;;
80249;SDS011;69561;37.974;23.708;2023-04-22T03:01:43;11.55;;;6.30;;
80249;SDS011;69561;37.974;23.708;2023-04-22T03:04:09;8.88;;;6.47;;
80249;SDS011;69561;37.974;23.708;2023-04-22T03:06:36;11.73;;;6.80;;
80249;SDS011;69561;37.974;23.708;2023-04-22T03:09:01;11.27;;;6.55;;
80249;SDS011;69561;37.974;23.708;2023-04-22T03:11:28;11.55;;;6.60;;
80249;SDS011;69561;37.974;23.708;2023-04-22T03:13:53;11.80;;;6.57;;
80249;SDS011;69561;37.974;23.708;2023-04-22T03:16:21;8.45;;;5.88;;
80249;SDS011;69561;37.974;23.708;2023-04-22T03:18:48;11.57;;;6.70;;
80249;SDS011;69561;37.974;23.708;2023-04-22T03:21:14;9.90;;;6.18;;
80249;SDS011;69561;37.974;23.708;2023-04-22T03:23:39;14.32;;;6.30;;
80249;SDS011;69561;37.974;23.708;2023-04-22T03:26:05;9.90;;;6.00;;
80249;SDS011;69561;37.974;23.708;2023-04-22T03:28:31;11.73;;;6.03;;
80249;SDS011;69561;37.974;23.708;2023-04-22T03:30:57;8.48;;;5.30;;
80249;SDS011;69561;37.974;23.708;2023-04-22T03:33:22;11.20;;;5.78;;
80249;SDS011;69561;37.974;23.708;2023-04-22T03:35:48;9.38;;;5.03;;
80249;SDS011;69561;37.974;23.708;2023-04-22T03:38:15;9.80;;;5.32;;
80249;SDS011;69561;37.974;23.708;2023-04-22T03:40:41;9.15;;;5.40;;
80249;SDS011;69561;37.974;23.708;2023-04-22T03:43:07;12.68;;;5.20;;
80249;SDS011;69561;37.974;23.708;2023-04-22T03:45:33;8.43;;;4.60;;
80249;SDS011;69561;37.974;23.708;2023-04-22T03:47:59;11.27;;;5.18;;
80249;SDS011;69561;37.974;23.708;2023-04-22T03:50:24;9.55;;;5.05;;
80249;SDS011;69561;37.974;23.708;2023-04-22T03:52:50;11.60;;;5.15;;
80249;SDS011;69561;37.974;23.708;2023-04-22T03:55:16;14.35;;;5.57;;
80249;SDS011;69561;37.974;23.708;2023-04-22T03:57:41;12.07;;;4.70;;
80249;SDS011;69561;37.974;23.708;2023-04-22T04:00:07;8.45;;;4.78;;
80249;SDS011;69561;37.974;23.708;2023-04-22T04:02:33;12.07;;;4.85;;
80249;SDS011;69561;37.974;23.708;2023-04-22T04:04:59;11.77;;;4.50;;
80249;SDS011;69561;37.974;23.708;2023-04-22T04:07:26;8.93;;;4.57;;
80249;SDS011;69561;37.974;23.708;2023-04-22T04:09:51;12.18;;;4.60;;
80249;SDS011;69561;37.974;23.708;2023-04-22T04:12:17;7.95;;;4.30;;
80249;SDS011;69561;37.974;23.708;2023-04-22T04:14:43;8.50;;;4.25;;
80249;SDS011;69561;37.974;23.708;2023-04-22T04:17:08;9.50;;;4.10;;
80249;SDS011;69561;37.974;23.708;2023-04-22T04:19:37;7.72;;;3.83;;
80249;SDS011;69561;37.974;23.708;2023-04-22T04:22:02;10.70;;;4.50;;
80249;SDS011;69561;37.974;23.708;2023-04-22T04:24:28;9.93;;;3.90;;
80249;SDS011;69561;37.974;23.708;2023-04-22T04:26:54;9.18;;;3.88;;
80249;SDS011;69561;37.974;23.708;2023-04-22T04:29:22;7.78;;;4.38;;
80249;SDS011;69561;37.974;23.708;2023-04-22T04:31:47;9.02;;;3.90;;
80249;SDS011;69561;37.974;23.708;2023-04-22T04:34:13;11.73;;;4.03;;
80249;SDS011;69561;37.974;23.708;2023-04-22T04:36:39;7.30;;;3.63;;
80249;SDS011;69561;37.974;23.708;2023-04-22T04:39:05;9.63;;;3.80;;
80249;SDS011;69561;37.974;23.708;2023-04-22T04:41:32;6.28;;;3.55;;
80249;SDS011;69561;37.974;23.708;2023-04-22T04:43:58;6.30;;;3.85;;
80249;SDS011;69561;37.974;23.708;2023-04-22T04:46:26;6.05;;;3.55;;
80249;SDS011;69561;37.974;23.708;2023-04-22T04:48:56;11.70;;;3.80;;
80249;SDS011;69561;37.974;23.708;2023-04-22T04:51:22;13.43;;;4.03;;
80249;SDS011;69561;37.974;23.708;2023-04-22T04:53:48;9.48;;;3.60;;
80249;SDS011;69561;37.974;23.708;2023-04-22T04:56:14;8.43;;;3.70;;
80249;SDS011;69561;37.974;23.708;2023-04-22T04:58:40;6.10;;;3.30;;
80249;SDS011;69561;37.974;23.708;2023-04-22T05:01:06;6.68;;;3.50;;
80249;SDS011;69561;37.974;23.708;2023-04-22T05:03:32;8.38;;;3.60;;
80249;SDS011;69561;37.974;23.708;2023-04-22T05:05:58;5.43;;;3.10;;
80249;SDS011;69561;37.974;23.708;2023-04-22T05:08:23;6.85;;;3.50;;
80249;SDS011;69561;37.974;23.708;2023-04-22T05:10:49;5.22;;;3.15;;
80249;SDS011;69561;37.974;23.708;2023-04-22T05:13:15;6.57;;;3.40;;
80249;SDS011;69561;37.974;23.708;2023-04-22T05:15:40;5.88;;;3.30;;
80249;SDS011;69561;37.974;23.708;2023-04-22T05:18:07;7.60;;;3.00;;
80249;SDS011;69561;37.974;23.708;2023-04-22T05:20:33;7.88;;;3.50;;
80249;SDS011;69561;37.974;23.708;2023-04-22T05:22:58;5.78;;;3.30;;
80249;SDS011;69561;37.974;23.708;2023-04-22T05:25:24;10.15;;;3.75;;
80249;SDS011;69561;37.974;23.708;2023-04-22T05:27:50;5.05;;;3.20;;
80249;SDS011;69561;37.974;23.708;2023-04-22T05:30:16;8.57;;;3.20;;
80249;SDS011;69561;37.974;23.708;2023-04-22T05:32:41;5.95;;;3.47;;
80249;SDS011;69561;37.974;23.708;2023-04-22T05:35:07;5.10;;;3.13;;
80249;SDS011;69561;37.974;23.708;2023-04-22T05:37:34;6.13;;;3.10;;
80249;SDS011;69561;37.974;23.708;2023-04-22T05:40:00;7.55;;;3.45;;
80249;SDS011;69561;37.974;23.708;2023-04-22T05:42:26;10.00;;;3.60;;
80249;SDS011;69561;37.974;23.708;2023-04-22T05:44:51;6.22;;;3.25;;
80249;SDS011;69561;37.974;23.708;2023-04-22T05:47:17;6.50;;;3.42;;
80249;SDS011;69561;37.974;23.708;2023-04-22T05:49:43;7.28;;;3.70;;
80249;SDS011;69561;37.974;23.708;2023-04-22T05:52:08;7.72;;;3.63;;
80249;SDS011;69561;37.974;23.708;2023-04-22T05:54:34;6.20;;;3.40;;
80249;SDS011;69561;37.974;23.708;2023-04-22T05:57:01;8.48;;;3.30;;
80249;SDS011;69561;37.974;23.708;2023-04-22T05:59:26;5.43;;;3.45;;
80249;SDS011;69561;37.974;23.708;2023-04-22T06:01:52;6.15;;;3.40;;
80249;SDS011;69561;37.974;23.708;2023-04-22T06:04:18;3.38;;;2.83;;
80249;SDS011;69561;37.974;23.708;2023-04-22T06:06:43;6.93;;;3.45;;
80249;SDS011;69561;37.974;23.708;2023-04-22T06:09:09;5.53;;;3.30;;
80249;SDS011;69561;37.974;23.708;2023-04-22T06:11:35;7.53;;;3.20;;
80249;SDS011;69561;37.974;23.708;2023-04-22T06:14:01;6.85;;;3.53;;
80249;SDS011;69561;37.974;23.708;2023-04-22T06:16:26;6.20;;;3.10;;
80249;SDS011;69561;37.974;23.708;2023-04-22T06:18:53;4.30;;;3.10;;
80249;SDS011;69561;37.974;23.708;2023-04-22T06:21:19;5.78;;;3.45;;
80249;SDS011;69561;37.974;23.708;2023-04-22T06:23:45;6.05;;;3.60;;
80249;SDS011;69561;37.974;23.708;2023-04-22T06:26:11;8.98;;;3.55;;
80249;SDS011;69561;37.974;23.708;2023-04-22T06:28:36;6.85;;;3.45;;
80249;SDS011;69561;37.974;23.708;2023-04-22T06:31:02;8.60;;;3.45;;
80249;SDS011;69561;37.974;23.708;2023-04-22T06:33:28;5.85;;;3.10;;
80249;SDS011;69561;37.974;23.708;2023-04-22T06:35:54;4.78;;;3.10;;
80249;SDS011;69561;37.974;23.708;2023-04-22T06:38:19;6.78;;;3.28;;
80249;SDS011;69561;37.974;23.708;2023-04-22T06:40:45;8.68;;;3.28;;
80249;SDS011;69561;37.974;23.708;2023-04-22T06:43:11;6.30;;;3.08;;
80249;SDS011;69561;37.974;23.708;2023-04-22T06:45:36;6.32;;;2.85;;
80249;SDS011;69561;37.974;23.708;2023-04-22T06:48:02;6.10;;;2.88;;
80249;SDS011;69561;37.974;23.708;2023-04-22T06:50:28;6.97;;;3.10;;
80249;SDS011;69561;37.974;23.708;2023-04-22T06:52:54;5.68;;;3.15;;
80249;SDS011;69561;37.974;23.708;2023-04-22T06:55:20;6.68;;;3.10;;
80249;SDS011;69561;37.974;23.708;2023-04-22T06:57:45;6.45;;;3.10;;
80249;SDS011;69561;37.974;23.708;2023-04-22T07:00:11;5.28;;;3.10;;
80249;SDS011;69561;37.974;23.708;2023-04-22T07:02:37;7.13;;;3.85;;
80249;SDS011;69561;37.974;23.708;2023-04-22T07:05:03;6.72;;;3.75;;
80249;SDS011;69561;37.974;23.708;2023-04-22T07:07:29;5.38;;;3.10;;
80249;SDS011;69561;37.974;23.708;2023-04-22T07:09:55;7.47;;;3.15;;
80249;SDS011;69561;37.974;23.708;2023-04-22T07:12:21;5.75;;;2.97;;
80249;SDS011;69561;37.974;23.708;2023-04-22T07:14:48;7.78;;;3.25;;
80249;SDS011;69561;37.974;23.708;2023-04-22T07:17:14;4.82;;;2.70;;
80249;SDS011;69561;37.974;23.708;2023-04-22T07:19:43;8.23;;;3.08;;
80249;SDS011;69561;37.974;23.708;2023-04-22T07:22:09;6.75;;;3.55;;
80249;SDS011;69561;37.974;23.708;2023-04-22T07:24:35;6.63;;;3.00;;
80249;SDS011;69561;37.974;23.708;2023-04-22T07:27:01;6.15;;;2.88;;
80249;SDS011;69561;37.974;23.708;2023-04-22T07:29:27;5.15;;;2.92;;
80249;SDS011;69561;37.974;23.708;2023-04-22T07:31:53;5.82;;;2.80;;
80249;SDS011;69561;37.974;23.708;2023-04-22T07:34:19;4.18;;;2.65;;
80249;SDS011;69561;37.974;23.708;2023-04-22T07:36:44;4.70;;;2.60;;
80249;SDS011;69561;37.974;23.708;2023-04-22T07:39:10;4.25;;;2.67;;
80249;SDS011;69561;37.974;23.708;2023-04-22T07:41:36;4.78;;;2.65;;
80249;SDS011;69561;37.974;23.708;2023-04-22T07:44:01;4.78;;;2.90;;
80249;SDS011;69561;37.974;23.708;2023-04-22T07:46:28;3.83;;;2.50;;
80249;SDS011;69561;37.974;23.708;2023-04-22T07:48:54;4.32;;;2.30;;
80249;SDS011;69561;37.974;23.708;2023-04-22T07:51:19;4.45;;;2.45;;
80249;SDS011;69561;37.974;23.708;2023-04-22T07:53:45;3.50;;;2.33;;
80249;SDS011;69561;37.974;23.708;2023-04-22T07:56:11;4.78;;;2.50;;
80249;SDS011;69561;37.974;23.708;2023-04-22T07:58:37;4.53;;;2.70;;
80249;SDS011;69561;37.974;23.708;2023-04-22T08:01:03;6.07;;;2.50;;
80249;SDS011;69561;37.974;23.708;2023-04-22T08:03:29;3.95;;;2.42;;
80249;SDS011;69561;37.974;23.708;2023-04-22T08:05:54;3.30;;;2.35;;
80249;SDS011;69561;37.974;23.708;2023-04-22T08:08:22;3.92;;;2.35;;
80249;SDS011;69561;37.974;23.708;2023-04-22T08:10:48;5.93;;;2.70;;
80249;SDS011;69561;37.974;23.708;2023-04-22T08:13:14;2.78;;;2.13;;
80249;SDS011;69561;37.974;23.708;2023-04-22T08:15:39;3.92;;;2.30;;
80249;SDS011;69561;37.974;23.708;2023-04-22T08:18:05;3.10;;;2.10;;
80249;SDS011;69561;37.974;23.708;2023-04-22T08:20:31;3.42;;;2.15;;
80249;SDS011;69561;37.974;23.708;2023-04-22T08:22:56;3.30;;;1.98;;
80249;SDS011;69561;37.974;23.708;2023-04-22T08:25:24;3.13;;;2.05;;
80249;SDS011;69561;37.974;23.708;2023-04-22T08:27:51;3.70;;;2.00;;
80249;SDS011;69561;37.974;23.708;2023-04-22T08:30:17;3.25;;;2.15;;
80249;SDS011;69561;37.974;23.708;2023-04-22T08:32:43;2.67;;;2.05;;
80249;SDS011;69561;37.974;23.708;2023-04-22T08:35:09;2.88;;;1.80;;
80249;SDS011;69561;37.974;23.708;2023-04-22T08:37:35;2.75;;;1.85;;
80249;SDS011;69561;37.974;23.708;2023-04-22T08:40:01;1.85;;;1.67;;
80249;SDS011;69561;37.974;23.708;2023-04-22T08:42:28;3.72;;;2.00;;
80249;SDS011;69561;37.974;23.708;2023-04-22T08:44:55;3.08;;;2.17;;
80249;SDS011;69561;37.974;23.708;2023-04-22T08:47:21;2.00;;;1.80;;
80249;SDS011;69561;37.974;23.708;2023-04-22T08:49:49;3.35;;;1.60;;
80249;SDS011;69561;37.974;23.708;2023-04-22T08:52:17;3.30;;;1.85;;
80249;SDS011;69561;37.974;23.708;2023-04-22T08:54:43;2.97;;;1.70;;
80249;SDS011;69561;37.974;23.708;2023-04-22T08:57:08;2.58;;;1.60;;
80249;SDS011;69561;37.974;23.708;2023-04-22T08:59:35;2.28;;;1.70;;
80249;SDS011;69561;37.974;23.708;2023-04-22T09:02:02;2.65;;;1.55;;
80249;SDS011;69561;37.974;23.708;2023-04-22T09:04:29;2.97;;;1.75;;
80249;SDS011;69561;37.974;23.708;2023-04-22T09:06:55;2.95;;;1.80;;
80249;SDS011;69561;37.974;23.708;2023-04-22T09:09:21;2.38;;;1.58;;
80249;SDS011;69561;37.974;23.708;2023-04-22T09:11:48;2.15;;;1.58;;
80249;SDS011;69561;37.974;23.708;2023-04-22T09:14:15;1.65;;;1.42;;
80249;SDS011;69561;37.974;23.708;2023-04-22T09:16:45;2.25;;;1.63;;
80249;SDS011;69561;37.974;23.708;2023-04-22T09:19:12;1.58;;;1.40;;
80249;SDS011;69561;37.974;23.708;2023-04-22T09:21:41;2.28;;;1.45;;
80249;SDS011;69561;37.974;23.708;2023-04-22T09:24:07;2.35;;;1.50;;
80249;SDS011;69561;37.974;23.708;2023-04-22T09:26:38;1.52;;;1.38;;
80249;SDS011;69561;37.974;23.708;2023-04-22T09:29:05;1.53;;;1.30;;
80249;SDS011;69561;37.974;23.708;2023-04-22T09:31:33;1.45;;;1.20;;
80249;SDS011;69561;37.974;23.708;2023-04-22T09:36:31;1.70;;;1.38;;
80249;SDS011;69561;37.974;23.708;2023-04-22T09:39:03;1.30;;;1.20;;
80249;SDS011;69561;37.974;23.708;2023-04-22T09:41:32;2.60;;;1.25;;
80249;SDS011;69561;37.974;23.708;2023-04-22T09:43:59;1.75;;;1.23;;
80249;SDS011;69561;37.974;23.708;2023-04-22T09:46:27;1.30;;;1.20;;
80249;SDS011;69561;37.974;23.708;2023-04-22T09:48:55;1.48;;;1.10;;
80249;SDS011;69561;37.974;23.708;2023-04-22T09:51:23;1.88;;;1.10;;
80249;SDS011;69561;37.974;23.708;2023-04-22T09:54:22;1.17;;;0.90;;
80249;SDS011;69561;37.974;23.708;2023-04-22T09:56:45;1.30;;;1.20;;
80249;SDS011;69561;37.974;23.708;2023-04-22T09:59:12;1.25;;;0.95;;
80249;SDS011;69561;37.974;23.708;2023-04-22T10:01:39;1.58;;;1.17;;
80249;SDS011;69561;37.974;23.708;2023-04-22T10:04:06;1.20;;;1.10;;
80249;SDS011;69561;37.974;23.708;2023-04-22T10:06:38;1.25;;;1.15;;
80249;SDS011;69561;37.974;23.708;2023-04-22T10:09:05;1.85;;;1.23;;
80249;SDS011;69561;37.974;23.708;2023-04-22T10:11:32;1.95;;;1.00;;
80249;SDS011;69561;37.974;23.708;2023-04-22T10:13:58;2.30;;;1.20;;
80249;SDS011;69561;37.974;23.708;2023-04-22T10:16:28;1.20;;;1.00;;
80249;SDS011;69561;37.974;23.708;2023-04-22T10:18:56;2.38;;;1.23;;
80249;SDS011;69561;37.974;23.708;2023-04-22T10:21:24;1.05;;;0.90;;
80249;SDS011;69561;37.974;23.708;2023-04-22T10:23:53;1.38;;;1.00;;
80249;SDS011;69561;37.974;23.708;2023-04-22T10:29:07;1.20;;;1.00;;
80249;SDS011;69561;37.974;23.708;2023-04-22T10:31:37;1.10;;;1.00;;
80249;SDS011;69561;37.974;23.708;2023-04-22T10:34:12;2.05;;;1.30;;
80249;SDS011;69561;37.974;23.708;2023-04-22T10:39:39;1.33;;;1.02;;
80249;SDS011;69561;37.974;23.708;2023-04-22T10:42:11;2.63;;;1.17;;
80249;SDS011;69561;37.974;23.708;2023-04-22T10:47:25;1.23;;;0.90;;
80249;SDS011;69561;37.974;23.708;2023-04-22T10:52:33;1.05;;;0.95;;
80249;SDS011;69561;37.974;23.708;2023-04-22T10:54:59;2.15;;;1.17;;
80249;SDS011;69561;37.974;23.708;2023-04-22T10:57:28;1.20;;;1.00;;
80249;SDS011;69561;37.974;23.708;2023-04-22T11:02:44;2.40;;;1.17;;
80249;SDS011;69561;37.974;23.708;2023-04-22T11:05:21;1.30;;;1.20;;
80249;SDS011;69561;37.974;23.708;2023-04-22T11:07:50;0.90;;;0.85;;
80249;SDS011;69561;37.974;23.708;2023-04-22T11:10:30;1.08;;;0.90;;
80249;SDS011;69561;37.974;23.708;2023-04-22T11:12:56;1.95;;;0.90;;
80249;SDS011;69561;37.974;23.708;2023-04-22T11:15:22;2.08;;;1.00;;
80249;SDS011;69561;37.974;23.708;2023-04-22T11:17:52;1.45;;;0.90;;
80249;SDS011;69561;37.974;23.708;2023-04-22T11:20:18;0.93;;;0.90;;
80249;SDS011;69561;37.974;23.708;2023-04-22T11:22:46;1.90;;;1.10;;
80249;SDS011;69561;37.974;23.708;2023-04-22T11:25:13;2.42;;;0.90;;
80249;SDS011;69561;37.974;23.708;2023-04-22T11:27:39;2.83;;;1.00;;
80249;SDS011;69561;37.974;23.708;2023-04-22T11:32:46;1.33;;;1.00;;
80249;SDS011;69561;37.974;23.708;2023-04-22T11:35:15;1.00;;;0.90;;
80249;SDS011;69561;37.974;23.708;2023-04-22T11:37:56;1.10;;;1.05;;
80249;SDS011;69561;37.974;23.708;2023-04-22T11:40:25;1.88;;;1.00;;
80249;SDS011;69561;37.974;23.708;2023-04-22T11:42:56;2.22;;;1.00;;
80249;SDS011;69561;37.974;23.708;2023-04-22T11:45:23;2.33;;;0.93;;
80249;SDS011;69561;37.974;23.708;2023-04-22T11:47:50;1.00;;;0.90;;
80249;SDS011;69561;37.974;23.708;2023-04-22T11:50:17;1.48;;;0.88;;
80249;SDS011;69561;37.974;23.708;2023-04-22T11:52:50;1.60;;;1.00;;
80249;SDS011;69561;37.974;23.708;2023-04-22T11:55:24;2.08;;;0.90;;
80249;SDS011;69561;37.974;23.708;2023-04-22T11:57:58;4.15;;;1.00;;
80249;SDS011;69561;37.974;23.708;2023-04-22T12:00:30;1.58;;;0.90;;
80249;SDS011;69561;37.974;23.708;2023-04-22T12:03:01;1.65;;;0.90;;
80249;SDS011;69561;37.974;23.708;2023-04-22T12:05:46;1.40;;;1.00;;
80249;SDS011;69561;37.974;23.708;2023-04-22T12:08:20;1.10;;;0.82;;
80249;SDS011;69561;37.974;23.708;2023-04-22T12:10:49;2.55;;;0.90;;
80249;SDS011;69561;37.974;23.708;2023-04-22T12:13:20;2.25;;;0.90;;
80249;SDS011;69561;37.974;23.708;2023-04-22T12:15:46;1.40;;;1.00;;
80249;SDS011;69561;37.974;23.708;2023-04-22T12:18:13;2.05;;;1.02;;
80249;SDS011;69561;37.974;23.708;2023-04-22T12:20:39;1.55;;;0.90;;
80249;SDS011;69561;37.974;23.708;2023-04-22T12:23:12;2.78;;;0.85;;
80249;SDS011;69561;37.974;23.708;2023-04-22T12:25:39;0.80;;;0.80;;
80249;SDS011;69561;37.974;23.708;2023-04-22T12:28:05;1.70;;;0.90;;
80249;SDS011;69561;37.974;23.708;2023-04-22T12:30:31;1.45;;;1.00;;
80249;SDS011;69561;37.974;23.708;2023-04-22T12:32:57;1.15;;;0.98;;
80249;SDS011;69561;37.974;23.708;2023-04-22T12:35:22;1.63;;;1.02;;
80249;SDS011;69561;37.974;23.708;2023-04-22T12:37:48;1.08;;;0.93;;
80249;SDS011;69561;37.974;23.708;2023-04-22T12:40:14;1.95;;;1.10;;
80249;SDS011;69561;37.974;23.708;2023-04-22T12:42:40;1.50;;;0.90;;
80249;SDS011;69561;37.974;23.708;2023-04-22T12:45:06;1.52;;;1.00;;
80249;SDS011;69561;37.974;23.708;2023-04-22T12:47:33;1.25;;;1.15;;
80249;SDS011;69561;37.974;23.708;2023-04-22T12:49:58;1.70;;;0.90;;
80249;SDS011;69561;37.974;23.708;2023-04-22T12:52:25;0.93;;;0.85;;
80249;SDS011;69561;37.974;23.708;2023-04-22T12:54:52;1.75;;;0.80;;
80249;SDS011;69561;37.974;23.708;2023-04-22T12:57:18;2.30;;;1.00;;
80249;SDS011;69561;37.974;23.708;2023-04-22T12:59:43;0.90;;;0.90;;
80249;SDS011;69561;37.974;23.708;2023-04-22T13:02:11;1.77;;;1.08;;
80249;SDS011;69561;37.974;23.708;2023-04-22T13:04:37;1.02;;;0.90;;
80249;SDS011;69561;37.974;23.708;2023-04-22T13:07:02;1.00;;;0.90;;
80249;SDS011;69561;37.974;23.708;2023-04-22T13:09:28;2.92;;;1.02;;
80249;SDS011;69561;37.974;23.708;2023-04-22T13:11:54;1.23;;;0.93;;
80249;SDS011;69561;37.974;23.708;2023-04-22T13:14:20;2.33;;;1.17;;
80249;SDS011;69561;37.974;23.708;2023-04-22T13:16:46;1.50;;;1.20;;
80249;SDS011;69561;37.974;23.708;2023-04-22T13:19:12;1.50;;;1.40;;
80249;SDS011;69561;37.974;23.708;2023-04-22T13:21:38;5.32;;;1.40;;
80249;SDS011;69561;37.974;23.708;2023-04-22T13:24:03;7.38;;;1.30;;
80249;SDS011;69561;37.974;23.708;2023-04-22T13:26:29;1.98;;;1.30;;
80249;SDS011;69561;37.974;23.708;2023-04-22T13:28:55;3.83;;;1.38;;
80249;SDS011;69561;37.974;23.708;2023-04-22T13:31:21;2.25;;;1.30;;
80249;SDS011;69561;37.974;23.708;2023-04-22T13:33:46;2.72;;;1.50;;
80249;SDS011;69561;37.974;23.708;2023-04-22T13:36:12;3.80;;;1.30;;
80249;SDS011;69561;37.974;23.708;2023-04-22T13:38:38;2.60;;;1.23;;
80249;SDS011;69561;37.974;23.708;2023-04-22T13:41:03;3.13;;;1.67;;
80249;SDS011;69561;37.974;23.708;2023-04-22T13:43:29;4.65;;;1.70;;
80249;SDS011;69561;37.974;23.708;2023-04-22T13:45:55;4.53;;;1.40;;
80249;SDS011;69561;37.974;23.708;2023-04-22T13:48:21;4.18;;;1.52;;
80249;SDS011;69561;37.974;23.708;2023-04-22T13:50:46;2.33;;;1.63;;
80249;SDS011;69561;37.974;23.708;2023-04-22T13:53:12;1.98;;;1.45;;
80249;SDS011;69561;37.974;23.708;2023-04-22T13:55:38;2.42;;;1.55;;
80249;SDS011;69561;37.974;23.708;2023-04-22T13:58:04;1.98;;;1.35;;
80249;SDS011;69561;37.974;23.708;2023-04-22T14:00:32;4.80;;;1.67;;
80249;SDS011;69561;37.974;23.708;2023-04-22T14:02:58;3.55;;;1.60;;
80249;SDS011;69561;37.974;23.708;2023-04-22T14:05:24;2.13;;;1.50;;
80249;SDS011;69561;37.974;23.708;2023-04-22T14:07:50;1.60;;;1.50;;
80249;SDS011;69561;37.974;23.708;2023-04-22T14:10:15;1.60;;;1.40;;
80249;SDS011;69561;37.974;23.708;2023-04-22T14:12:44;6.70;;;1.70;;
80249;SDS011;69561;37.974;23.708;2023-04-22T14:15:10;4.03;;;1.60;;
80249;SDS011;69561;37.974;23.708;2023-04-22T14:17:37;4.32;;;1.70;;
80249;SDS011;69561;37.974;23.708;2023-04-22T14:20:03;2.10;;;1.60;;
80249;SDS011;69561;37.974;23.708;2023-04-22T14:22:30;2.60;;;1.70;;
80249;SDS011;69561;37.974;23.708;2023-04-22T14:24:56;5.15;;;1.52;;
80249;SDS011;69561;37.974;23.708;2023-04-22T14:27:22;2.38;;;1.70;;
80249;SDS011;69561;37.974;23.708;2023-04-22T14:29:48;4.10;;;1.67;;
80249;SDS011;69561;37.974;23.708;2023-04-22T14:32:16;2.80;;;1.67;;
80249;SDS011;69561;37.974;23.708;2023-04-22T14:34:43;4.32;;;1.60;;
80249;SDS011;69561;37.974;23.708;2023-04-22T14:37:09;2.38;;;1.30;;
80249;SDS011;69561;37.974;23.708;2023-04-22T14:39:35;3.88;;;1.40;;
80249;SDS011;69561;37.974;23.708;2023-04-22T14:42:01;4.22;;;1.63;;
80249;SDS011;69561;37.974;23.708;2023-04-22T14:44:28;3.70;;;1.50;;
80249;SDS011;69561;37.974;23.708;2023-04-22T14:46:54;2.22;;;1.55;;